sensor_id;sensor_type;location;lat;lon;timestamp;P1;durP1;ratioP1;P2;durP2;ratioP2
25279;SDS011;13225;47.804;12.116;2022-07-10T00:01:50;2.47;;;1.92;;
25279;SDS011;13225;47.804;12.116;2022-07-10T00:04:16;3.25;;;1.98;;
25279;SDS011;13225;47.804;12.116;2022-07-10T00:06:42;5.95;;;2.10;;
25279;SDS011;13225;47.804;12.116;2022-07-10T00:09:11;3.10;;;1.88;;
25279;SDS011;13225;47.804;12.116;2022-07-10T00:11:38;2.33;;;2.03;;
25279;SDS011;13225;47.804;12.116;2022-07-10T00:14:04;3.53;;;1.92;;
25279;SDS011;13225;47.804;12.116;2022-07-10T00:16:29;5.45;;;2.15;;
25279;SDS011;13225;47.804;12.116;2022-07-10T00:18:55;6.00;;;2.30;;
25279;SDS011;13225;47.804;12.116;2022-07-10T00:21:21;2.88;;;2.20;;
25279;SDS011;13225;47.804;12.116;2022-07-10T00:23:46;3.72;;;2.13;;
25279;SDS011;13225;47.804;12.116;2022-07-10T00:26:12;3.72;;;2.40;;
25279;SDS011;13225;47.804;12.116;2022-07-10T00:28:37;7.93;;;2.40;;
25279;SDS011;13225;47.804;12.116;2022-07-10T00:31:03;4.57;;;2.63;;
25279;SDS011;13225;47.804;12.116;2022-07-10T00:33:29;4.55;;;2.83;;
25279;SDS011;13225;47.804;12.116;2022-07-10T00:35:57;4.80;;;2.70;;
25279;SDS011;13225;47.804;12.116;2022-07-10T00:38:23;3.80;;;2.40;;
25279;SDS011;13225;47.804;12.116;2022-07-10T00:40:49;3.95;;;2.80;;
25279;SDS011;13225;47.804;12.116;2022-07-10T00:43:14;3.83;;;2.65;;
25279;SDS011;13225;47.804;12.116;2022-07-10T00:45:40;3.67;;;3.13;;
25279;SDS011;13225;47.804;12.116;2022-07-10T00:48:06;3.58;;;2.95;;
25279;SDS011;13225;47.804;12.116;2022-07-10T00:50:34;3.42;;;2.70;;
25279;SDS011;13225;47.804;12.116;2022-07-10T00:53:00;5.28;;;2.90;;
25279;SDS011;13225;47.804;12.116;2022-07-10T00:55:27;3.97;;;2.70;;
25279;SDS011;13225;47.804;12.116;2022-07-10T00:57:53;3.28;;;2.80;;
25279;SDS011;13225;47.804;12.116;2022-07-10T01:00:19;2.78;;;2.30;;
25279;SDS011;13225;47.804;12.116;2022-07-10T01:02:46;4.65;;;2.60;;
25279;SDS011;13225;47.804;12.116;2022-07-10T01:05:12;7.43;;;2.72;;
25279;SDS011;13225;47.804;12.116;2022-07-10T01:07:38;3.10;;;2.53;;
25279;SDS011;13225;47.804;12.116;2022-07-10T01:10:03;3.38;;;2.58;;
25279;SDS011;13225;47.804;12.116;2022-07-10T01:12:29;3.80;;;2.53;;
25279;SDS011;13225;47.804;12.116;2022-07-10T01:14:56;3.60;;;2.97;;
25279;SDS011;13225;47.804;12.116;2022-07-10T01:17:23;5.60;;;3.00;;
25279;SDS011;13225;47.804;12.116;2022-07-10T01:19:49;5.07;;;2.72;;
25279;SDS011;13225;47.804;12.116;2022-07-10T01:22:15;3.65;;;2.50;;
25279;SDS011;13225;47.804;12.116;2022-07-10T01:24:40;2.90;;;2.63;;
25279;SDS011;13225;47.804;12.116;2022-07-10T01:27:06;3.33;;;2.80;;
25279;SDS011;13225;47.804;12.116;2022-07-10T01:29:33;4.50;;;3.08;;
25279;SDS011;13225;47.804;12.116;2022-07-10T01:32:00;7.05;;;2.90;;
25279;SDS011;13225;47.804;12.116;2022-07-10T01:34:26;4.90;;;2.95;;
25279;SDS011;13225;47.804;12.116;2022-07-10T01:36:52;4.93;;;3.10;;
25279;SDS011;13225;47.804;12.116;2022-07-10T01:39:18;5.82;;;3.53;;
25279;SDS011;13225;47.804;12.116;2022-07-10T01:41:44;6.25;;;3.85;;
25279;SDS011;13225;47.804;12.116;2022-07-10T01:44:09;4.05;;;3.60;;
25279;SDS011;13225;47.804;12.116;2022-07-10T01:46:35;5.70;;;4.18;;
25279;SDS011;13225;47.804;12.116;2022-07-10T01:49:07;6.82;;;4.30;;
25279;SDS011;13225;47.804;12.116;2022-07-10T01:51:33;8.40;;;4.90;;
25279;SDS011;13225;47.804;12.116;2022-07-10T01:53:58;9.15;;;5.28;;
25279;SDS011;13225;47.804;12.116;2022-07-10T01:56:24;8.95;;;4.80;;
25279;SDS011;13225;47.804;12.116;2022-07-10T01:58:50;5.72;;;5.13;;
25279;SDS011;13225;47.804;12.116;2022-07-10T02:01:15;5.45;;;4.65;;
25279;SDS011;13225;47.804;12.116;2022-07-10T02:03:41;9.55;;;5.90;;
25279;SDS011;13225;47.804;12.116;2022-07-10T02:06:25;6.63;;;5.07;;
25279;SDS011;13225;47.804;12.116;2022-07-10T02:08:51;9.63;;;6.32;;
25279;SDS011;13225;47.804;12.116;2022-07-10T02:11:17;8.63;;;5.75;;
25279;SDS011;13225;47.804;12.116;2022-07-10T02:13:43;7.95;;;6.32;;
25279;SDS011;13225;47.804;12.116;2022-07-10T02:16:09;9.45;;;6.70;;
25279;SDS011;13225;47.804;12.116;2022-07-10T02:18:35;11.30;;;6.80;;
25279;SDS011;13225;47.804;12.116;2022-07-10T02:21:01;10.40;;;7.18;;
25279;SDS011;13225;47.804;12.116;2022-07-10T02:23:27;10.93;;;7.30;;
25279;SDS011;13225;47.804;12.116;2022-07-10T02:25:53;9.40;;;7.35;;
25279;SDS011;13225;47.804;12.116;2022-07-10T02:28:18;8.68;;;7.07;;
25279;SDS011;13225;47.804;12.116;2022-07-10T02:30:44;10.00;;;7.65;;
25279;SDS011;13225;47.804;12.116;2022-07-10T02:33:10;10.63;;;7.40;;
25279;SDS011;13225;47.804;12.116;2022-07-10T02:35:35;9.50;;;7.45;;
25279;SDS011;13225;47.804;12.116;2022-07-10T02:38:01;11.07;;;7.93;;
25279;SDS011;13225;47.804;12.116;2022-07-10T02:40:26;10.70;;;7.40;;
25279;SDS011;13225;47.804;12.116;2022-07-10T02:42:52;8.35;;;7.43;;
25279;SDS011;13225;47.804;12.116;2022-07-10T02:45:18;8.57;;;7.10;;
25279;SDS011;13225;47.804;12.116;2022-07-10T02:47:43;9.60;;;6.88;;
25279;SDS011;13225;47.804;12.116;2022-07-10T02:50:09;9.82;;;7.32;;
25279;SDS011;13225;47.804;12.116;2022-07-10T02:52:34;8.45;;;7.47;;
25279;SDS011;13225;47.804;12.116;2022-07-10T02:55:00;10.90;;;7.80;;
25279;SDS011;13225;47.804;12.116;2022-07-10T02:57:26;8.02;;;7.20;;
25279;SDS011;13225;47.804;12.116;2022-07-10T02:59:52;8.90;;;7.88;;
25279;SDS011;13225;47.804;12.116;2022-07-10T03:02:18;9.27;;;7.93;;
25279;SDS011;13225;47.804;12.116;2022-07-10T03:04:44;9.52;;;7.13;;
25279;SDS011;13225;47.804;12.116;2022-07-10T03:07:09;8.88;;;7.97;;
25279;SDS011;13225;47.804;12.116;2022-07-10T03:09:35;9.18;;;7.53;;
25279;SDS011;13225;47.804;12.116;2022-07-10T03:12:01;10.80;;;8.13;;
25279;SDS011;13225;47.804;12.116;2022-07-10T03:14:27;9.65;;;8.60;;
25279;SDS011;13225;47.804;12.116;2022-07-10T03:16:52;11.90;;;8.18;;
25279;SDS011;13225;47.804;12.116;2022-07-10T03:19:18;12.15;;;8.55;;
25279;SDS011;13225;47.804;12.116;2022-07-10T03:21:44;9.18;;;7.82;;
25279;SDS011;13225;47.804;12.116;2022-07-10T03:24:11;9.48;;;8.05;;
25279;SDS011;13225;47.804;12.116;2022-07-10T03:26:41;9.85;;;8.73;;
25279;SDS011;13225;47.804;12.116;2022-07-10T03:29:15;9.95;;;8.40;;
25279;SDS011;13225;47.804;12.116;2022-07-10T03:31:41;10.55;;;8.65;;
25279;SDS011;13225;47.804;12.116;2022-07-10T03:34:06;10.70;;;9.07;;
25279;SDS011;13225;47.804;12.116;2022-07-10T03:36:32;10.20;;;8.85;;
25279;SDS011;13225;47.804;12.116;2022-07-10T03:38:58;9.88;;;8.88;;
25279;SDS011;13225;47.804;12.116;2022-07-10T03:41:23;11.52;;;9.02;;
25279;SDS011;13225;47.804;12.116;2022-07-10T03:43:49;11.20;;;9.40;;
25279;SDS011;13225;47.804;12.116;2022-07-10T03:46:15;11.73;;;9.25;;
25279;SDS011;13225;47.804;12.116;2022-07-10T03:48:40;13.02;;;9.13;;
25279;SDS011;13225;47.804;12.116;2022-07-10T03:51:06;13.35;;;10.07;;
25279;SDS011;13225;47.804;12.116;2022-07-10T03:53:32;10.63;;;9.60;;
25279;SDS011;13225;47.804;12.116;2022-07-10T03:55:57;12.40;;;10.10;;
25279;SDS011;13225;47.804;12.116;2022-07-10T03:58:25;12.73;;;9.82;;
25279;SDS011;13225;47.804;12.116;2022-07-10T04:00:51;12.27;;;10.50;;
25279;SDS011;13225;47.804;12.116;2022-07-10T04:03:17;10.23;;;8.95;;
25279;SDS011;13225;47.804;12.116;2022-07-10T04:05:43;12.52;;;9.60;;
25279;SDS011;13225;47.804;12.116;2022-07-10T04:08:08;12.23;;;8.80;;
25279;SDS011;13225;47.804;12.116;2022-07-10T04:10:34;10.65;;;9.18;;
25279;SDS011;13225;47.804;12.116;2022-07-10T04:13:01;11.90;;;9.32;;
25279;SDS011;13225;47.804;12.116;2022-07-10T04:15:27;11.77;;;10.20;;
25279;SDS011;13225;47.804;12.116;2022-07-10T04:17:52;12.88;;;11.02;;
25279;SDS011;13225;47.804;12.116;2022-07-10T04:20:19;11.10;;;9.93;;
25279;SDS011;13225;47.804;12.116;2022-07-10T04:22:45;11.32;;;9.55;;
25279;SDS011;13225;47.804;12.116;2022-07-10T04:25:11;11.52;;;8.88;;
25279;SDS011;13225;47.804;12.116;2022-07-10T04:27:37;11.90;;;9.90;;
25279;SDS011;13225;47.804;12.116;2022-07-10T04:30:03;9.93;;;8.77;;
25279;SDS011;13225;47.804;12.116;2022-07-10T04:32:30;11.50;;;9.18;;
25279;SDS011;13225;47.804;12.116;2022-07-10T04:34:56;11.50;;;9.32;;
25279;SDS011;13225;47.804;12.116;2022-07-10T04:37:22;13.32;;;10.38;;
25279;SDS011;13225;47.804;12.116;2022-07-10T04:39:48;12.70;;;10.57;;
25279;SDS011;13225;47.804;12.116;2022-07-10T04:42:13;12.18;;;9.73;;
25279;SDS011;13225;47.804;12.116;2022-07-10T04:44:39;12.40;;;9.75;;
25279;SDS011;13225;47.804;12.116;2022-07-10T04:47:05;11.93;;;9.70;;
25279;SDS011;13225;47.804;12.116;2022-07-10T04:49:31;12.55;;;9.80;;
25279;SDS011;13225;47.804;12.116;2022-07-10T04:51:57;11.60;;;10.38;;
25279;SDS011;13225;47.804;12.116;2022-07-10T04:54:23;14.82;;;10.00;;
25279;SDS011;13225;47.804;12.116;2022-07-10T04:56:49;12.18;;;10.38;;
25279;SDS011;13225;47.804;12.116;2022-07-10T04:59:15;13.77;;;10.98;;
25279;SDS011;13225;47.804;12.116;2022-07-10T05:01:41;14.68;;;10.65;;
25279;SDS011;13225;47.804;12.116;2022-07-10T05:04:06;11.38;;;10.18;;
25279;SDS011;13225;47.804;12.116;2022-07-10T05:06:33;13.75;;;11.05;;
25279;SDS011;13225;47.804;12.116;2022-07-10T05:08:59;11.52;;;9.85;;
25279;SDS011;13225;47.804;12.116;2022-07-10T05:11:25;13.60;;;9.90;;
25279;SDS011;13225;47.804;12.116;2022-07-10T05:13:51;12.23;;;10.43;;
25279;SDS011;13225;47.804;12.116;2022-07-10T05:16:17;12.00;;;9.77;;
25279;SDS011;13225;47.804;12.116;2022-07-10T05:18:43;13.38;;;9.45;;
25279;SDS011;13225;47.804;12.116;2022-07-10T05:21:09;11.95;;;9.70;;
25279;SDS011;13225;47.804;12.116;2022-07-10T05:23:35;11.82;;;9.68;;
25279;SDS011;13225;47.804;12.116;2022-07-10T05:26:02;11.48;;;9.82;;
25279;SDS011;13225;47.804;12.116;2022-07-10T05:28:27;11.13;;;10.02;;
25279;SDS011;13225;47.804;12.116;2022-07-10T05:30:53;10.43;;;9.32;;
25279;SDS011;13225;47.804;12.116;2022-07-10T05:33:18;11.38;;;9.63;;
25279;SDS011;13225;47.804;12.116;2022-07-10T05:35:44;11.57;;;10.00;;
25279;SDS011;13225;47.804;12.116;2022-07-10T05:38:10;14.15;;;10.45;;
25279;SDS011;13225;47.804;12.116;2022-07-10T05:40:35;11.32;;;9.77;;
25279;SDS011;13225;47.804;12.116;2022-07-10T05:43:01;11.32;;;9.10;;
25279;SDS011;13225;47.804;12.116;2022-07-10T05:45:26;12.65;;;9.10;;
25279;SDS011;13225;47.804;12.116;2022-07-10T05:47:52;11.27;;;9.05;;
25279;SDS011;13225;47.804;12.116;2022-07-10T05:50:18;12.13;;;8.75;;
25279;SDS011;13225;47.804;12.116;2022-07-10T05:52:43;11.00;;;8.15;;
25279;SDS011;13225;47.804;12.116;2022-07-10T05:55:09;9.20;;;8.30;;
25279;SDS011;13225;47.804;12.116;2022-07-10T05:57:35;11.57;;;8.07;;
25279;SDS011;13225;47.804;12.116;2022-07-10T06:00:03;11.23;;;8.32;;
25279;SDS011;13225;47.804;12.116;2022-07-10T06:02:30;8.63;;;7.82;;
25279;SDS011;13225;47.804;12.116;2022-07-10T06:04:55;9.93;;;8.10;;
25279;SDS011;13225;47.804;12.116;2022-07-10T06:07:21;8.68;;;7.72;;
25279;SDS011;13225;47.804;12.116;2022-07-10T06:09:47;8.82;;;7.50;;
25279;SDS011;13225;47.804;12.116;2022-07-10T06:12:12;8.32;;;7.45;;
25279;SDS011;13225;47.804;12.116;2022-07-10T06:14:40;8.73;;;7.82;;
25279;SDS011;13225;47.804;12.116;2022-07-10T06:17:06;10.65;;;7.43;;
25279;SDS011;13225;47.804;12.116;2022-07-10T06:19:32;9.90;;;7.78;;
25279;SDS011;13225;47.804;12.116;2022-07-10T06:21:58;9.77;;;7.65;;
25279;SDS011;13225;47.804;12.116;2022-07-10T06:24:43;8.57;;;7.55;;
25279;SDS011;13225;47.804;12.116;2022-07-10T06:27:09;11.13;;;7.93;;
25279;SDS011;13225;47.804;12.116;2022-07-10T06:29:34;9.85;;;8.60;;
25279;SDS011;13225;47.804;12.116;2022-07-10T06:32:00;10.40;;;8.38;;
25279;SDS011;13225;47.804;12.116;2022-07-10T06:34:26;8.30;;;7.45;;
25279;SDS011;13225;47.804;12.116;2022-07-10T06:36:53;8.18;;;7.38;;
25279;SDS011;13225;47.804;12.116;2022-07-10T06:39:18;7.90;;;6.88;;
25279;SDS011;13225;47.804;12.116;2022-07-10T06:41:44;8.77;;;7.88;;
25279;SDS011;13225;47.804;12.116;2022-07-10T06:44:09;8.27;;;7.50;;
25279;SDS011;13225;47.804;12.116;2022-07-10T06:46:35;9.80;;;7.93;;
25279;SDS011;13225;47.804;12.116;2022-07-10T06:49:02;7.70;;;6.90;;
25279;SDS011;13225;47.804;12.116;2022-07-10T06:51:28;9.50;;;7.13;;
25279;SDS011;13225;47.804;12.116;2022-07-10T06:53:54;8.50;;;7.57;;
25279;SDS011;13225;47.804;12.116;2022-07-10T06:56:21;7.07;;;6.38;;
25279;SDS011;13225;47.804;12.116;2022-07-10T06:58:47;7.85;;;7.03;;
25279;SDS011;13225;47.804;12.116;2022-07-10T07:01:13;7.88;;;7.10;;
25279;SDS011;13225;47.804;12.116;2022-07-10T07:03:39;7.65;;;6.80;;
25279;SDS011;13225;47.804;12.116;2022-07-10T07:06:04;7.72;;;7.00;;
25279;SDS011;13225;47.804;12.116;2022-07-10T07:08:30;8.63;;;7.75;;
25279;SDS011;13225;47.804;12.116;2022-07-10T07:10:55;9.38;;;7.70;;
25279;SDS011;13225;47.804;12.116;2022-07-10T07:13:21;8.73;;;7.82;;
25279;SDS011;13225;47.804;12.116;2022-07-10T07:15:47;8.93;;;7.28;;
25279;SDS011;13225;47.804;12.116;2022-07-10T07:18:23;9.02;;;7.50;;
25279;SDS011;13225;47.804;12.116;2022-07-10T07:20:56;10.02;;;7.30;;
25279;SDS011;13225;47.804;12.116;2022-07-10T07:24:01;9.70;;;7.57;;
25279;SDS011;13225;47.804;12.116;2022-07-10T07:26:27;8.07;;;7.20;;
25279;SDS011;13225;47.804;12.116;2022-07-10T07:28:53;8.02;;;6.70;;
25279;SDS011;13225;47.804;12.116;2022-07-10T07:31:19;8.02;;;6.82;;
25279;SDS011;13225;47.804;12.116;2022-07-10T07:33:45;12.18;;;7.28;;
25279;SDS011;13225;47.804;12.116;2022-07-10T07:36:10;8.63;;;6.72;;
25279;SDS011;13225;47.804;12.116;2022-07-10T07:38:36;6.55;;;5.95;;
25279;SDS011;13225;47.804;12.116;2022-07-10T07:41:02;9.63;;;6.28;;
25279;SDS011;13225;47.804;12.116;2022-07-10T07:43:27;7.07;;;6.38;;
25279;SDS011;13225;47.804;12.116;2022-07-10T07:45:53;8.82;;;6.65;;
25279;SDS011;13225;47.804;12.116;2022-07-10T07:48:18;7.60;;;6.57;;
25279;SDS011;13225;47.804;12.116;2022-07-10T07:50:44;7.47;;;6.25;;
25279;SDS011;13225;47.804;12.116;2022-07-10T07:53:09;7.30;;;6.18;;
25279;SDS011;13225;47.804;12.116;2022-07-10T07:55:37;7.60;;;5.95;;
25279;SDS011;13225;47.804;12.116;2022-07-10T07:58:02;6.28;;;5.63;;
25279;SDS011;13225;47.804;12.116;2022-07-10T08:00:28;6.18;;;5.57;;
25279;SDS011;13225;47.804;12.116;2022-07-10T08:02:55;6.13;;;5.15;;
25279;SDS011;13225;47.804;12.116;2022-07-10T08:05:21;6.28;;;5.55;;
25279;SDS011;13225;47.804;12.116;2022-07-10T08:07:51;9.18;;;5.43;;
25279;SDS011;13225;47.804;12.116;2022-07-10T08:10:20;6.30;;;5.35;;
25279;SDS011;13225;47.804;12.116;2022-07-10T08:12:47;6.20;;;5.43;;
25279;SDS011;13225;47.804;12.116;2022-07-10T08:15:14;7.15;;;5.30;;
25279;SDS011;13225;47.804;12.116;2022-07-10T08:17:41;6.03;;;5.10;;
25279;SDS011;13225;47.804;12.116;2022-07-10T08:20:08;5.90;;;5.13;;
25279;SDS011;13225;47.804;12.116;2022-07-10T08:22:36;8.38;;;4.95;;
25279;SDS011;13225;47.804;12.116;2022-07-10T08:25:02;6.00;;;5.43;;
25279;SDS011;13225;47.804;12.116;2022-07-10T08:27:28;6.82;;;4.60;;
25279;SDS011;13225;47.804;12.116;2022-07-10T08:29:54;7.50;;;5.70;;
25279;SDS011;13225;47.804;12.116;2022-07-10T08:32:19;5.90;;;5.35;;
25279;SDS011;13225;47.804;12.116;2022-07-10T08:34:45;6.32;;;5.35;;
25279;SDS011;13225;47.804;12.116;2022-07-10T08:37:11;5.57;;;4.75;;
25279;SDS011;13225;47.804;12.116;2022-07-10T08:39:36;4.60;;;4.18;;
25279;SDS011;13225;47.804;12.116;2022-07-10T08:42:04;6.93;;;4.55;;
25279;SDS011;13225;47.804;12.116;2022-07-10T08:44:31;4.80;;;4.40;;
25279;SDS011;13225;47.804;12.116;2022-07-10T08:46:58;5.32;;;4.65;;
25279;SDS011;13225;47.804;12.116;2022-07-10T08:49:27;6.35;;;4.50;;
25279;SDS011;13225;47.804;12.116;2022-07-10T08:52:00;4.75;;;4.15;;
25279;SDS011;13225;47.804;12.116;2022-07-10T08:54:56;5.70;;;4.80;;
25279;SDS011;13225;47.804;12.116;2022-07-10T08:57:25;5.93;;;5.22;;
25279;SDS011;13225;47.804;12.116;2022-07-10T08:59:51;6.10;;;4.40;;
25279;SDS011;13225;47.804;12.116;2022-07-10T09:02:18;6.05;;;4.13;;
25279;SDS011;13225;47.804;12.116;2022-07-10T09:04:44;4.30;;;3.90;;
25279;SDS011;13225;47.804;12.116;2022-07-10T09:07:09;4.32;;;3.92;;
25279;SDS011;13225;47.804;12.116;2022-07-10T09:09:53;5.25;;;4.05;;
25279;SDS011;13225;47.804;12.116;2022-07-10T09:12:23;5.07;;;4.60;;
25279;SDS011;13225;47.804;12.116;2022-07-10T09:14:50;4.10;;;3.80;;
25279;SDS011;13225;47.804;12.116;2022-07-10T09:17:17;4.88;;;4.22;;
25279;SDS011;13225;47.804;12.116;2022-07-10T09:19:43;5.57;;;4.80;;
25279;SDS011;13225;47.804;12.116;2022-07-10T09:22:10;5.45;;;4.95;;
25279;SDS011;13225;47.804;12.116;2022-07-10T09:27:12;5.75;;;5.25;;
25279;SDS011;13225;47.804;12.116;2022-07-10T09:29:50;6.50;;;4.65;;
25279;SDS011;13225;47.804;12.116;2022-07-10T09:32:20;5.13;;;4.22;;
25279;SDS011;13225;47.804;12.116;2022-07-10T09:34:51;3.53;;;3.22;;
25279;SDS011;13225;47.804;12.116;2022-07-10T09:37:40;4.20;;;3.80;;
25279;SDS011;13225;47.804;12.116;2022-07-10T09:40:07;4.68;;;4.13;;
25279;SDS011;13225;47.804;12.116;2022-07-10T09:42:34;4.00;;;3.60;;
25279;SDS011;13225;47.804;12.116;2022-07-10T09:47:42;4.75;;;3.83;;
25279;SDS011;13225;47.804;12.116;2022-07-10T09:52:56;4.28;;;3.88;;
25279;SDS011;13225;47.804;12.116;2022-07-10T09:55:24;3.83;;;3.40;;
25279;SDS011;13225;47.804;12.116;2022-07-10T09:57:58;3.47;;;3.13;;
25279;SDS011;13225;47.804;12.116;2022-07-10T10:00:29;4.13;;;3.30;;
25279;SDS011;13225;47.804;12.116;2022-07-10T10:02:57;4.03;;;3.00;;
25279;SDS011;13225;47.804;12.116;2022-07-10T10:05:36;4.72;;;3.28;;
25279;SDS011;13225;47.804;12.116;2022-07-10T10:11:16;3.55;;;2.88;;
25279;SDS011;13225;47.804;12.116;2022-07-10T10:13:45;7.35;;;2.92;;
25279;SDS011;13225;47.804;12.116;2022-07-10T10:16:13;3.85;;;3.20;;
25279;SDS011;13225;47.804;12.116;2022-07-10T10:18:39;6.50;;;2.83;;
25279;SDS011;13225;47.804;12.116;2022-07-10T10:21:27;3.33;;;2.75;;
25279;SDS011;13225;47.804;12.116;2022-07-10T10:23:54;3.03;;;2.65;;
25279;SDS011;13225;47.804;12.116;2022-07-10T10:26:23;3.72;;;2.40;;
25279;SDS011;13225;47.804;12.116;2022-07-10T10:28:50;2.67;;;2.42;;
25279;SDS011;13225;47.804;12.116;2022-07-10T10:31:17;2.45;;;2.25;;
25279;SDS011;13225;47.804;12.116;2022-07-10T10:33:45;3.13;;;2.50;;
25279;SDS011;13225;47.804;12.116;2022-07-10T10:36:13;4.65;;;2.78;;
25279;SDS011;13225;47.804;12.116;2022-07-10T10:38:59;3.08;;;2.50;;
25279;SDS011;13225;47.804;12.116;2022-07-10T10:49:16;2.63;;;2.42;;
25279;SDS011;13225;47.804;12.116;2022-07-10T10:54:27;3.75;;;2.10;;
25279;SDS011;13225;47.804;12.116;2022-07-10T10:59:46;4.68;;;2.92;;
25279;SDS011;13225;47.804;12.116;2022-07-10T11:02:32;3.72;;;2.38;;
25279;SDS011;13225;47.804;12.116;2022-07-10T11:07:58;5.68;;;2.70;;
25279;SDS011;13225;47.804;12.116;2022-07-10T11:13:24;4.55;;;2.85;;
25279;SDS011;13225;47.804;12.116;2022-07-10T11:15:55;2.70;;;2.50;;
25279;SDS011;13225;47.804;12.116;2022-07-10T11:18:23;3.30;;;2.65;;
25279;SDS011;13225;47.804;12.116;2022-07-10T11:20:51;4.45;;;2.45;;
25279;SDS011;13225;47.804;12.116;2022-07-10T11:26:06;2.78;;;2.47;;
25279;SDS011;13225;47.804;12.116;2022-07-10T11:31:21;2.13;;;2.03;;
25279;SDS011;13225;47.804;12.116;2022-07-10T11:33:49;2.42;;;2.00;;
25279;SDS011;13225;47.804;12.116;2022-07-10T11:36:17;4.15;;;2.08;;
25279;SDS011;13225;47.804;12.116;2022-07-10T11:38:45;2.20;;;1.80;;
25279;SDS011;13225;47.804;12.116;2022-07-10T11:43:50;2.10;;;1.73;;
25279;SDS011;13225;47.804;12.116;2022-07-10T11:46:16;2.55;;;1.67;;
25279;SDS011;13225;47.804;12.116;2022-07-10T11:48:42;3.33;;;1.80;;
25279;SDS011;13225;47.804;12.116;2022-07-10T11:51:18;2.40;;;1.80;;
25279;SDS011;13225;47.804;12.116;2022-07-10T11:53:53;3.72;;;1.55;;
25279;SDS011;13225;47.804;12.116;2022-07-10T11:56:20;6.88;;;1.90;;
25279;SDS011;13225;47.804;12.116;2022-07-10T11:58:56;2.45;;;1.77;;
25279;SDS011;13225;47.804;12.116;2022-07-10T12:01:29;2.80;;;2.17;;
25279;SDS011;13225;47.804;12.116;2022-07-10T12:04:02;1.92;;;1.70;;
25279;SDS011;13225;47.804;12.116;2022-07-10T12:06:28;2.83;;;1.73;;
25279;SDS011;13225;47.804;12.116;2022-07-10T12:08:55;2.72;;;1.80;;
25279;SDS011;13225;47.804;12.116;2022-07-10T12:11:26;2.10;;;1.90;;
25279;SDS011;13225;47.804;12.116;2022-07-10T12:13:51;3.65;;;1.92;;
25279;SDS011;13225;47.804;12.116;2022-07-10T12:16:19;2.85;;;2.00;;
25279;SDS011;13225;47.804;12.116;2022-07-10T12:18:46;2.95;;;2.30;;
25279;SDS011;13225;47.804;12.116;2022-07-10T12:21:13;2.67;;;1.95;;
25279;SDS011;13225;47.804;12.116;2022-07-10T12:23:40;3.10;;;1.75;;
25279;SDS011;13225;47.804;12.116;2022-07-10T12:26:07;2.25;;;2.00;;
25279;SDS011;13225;47.804;12.116;2022-07-10T12:28:50;4.03;;;2.15;;
25279;SDS011;13225;47.804;12.116;2022-07-10T12:31:21;2.08;;;1.80;;
25279;SDS011;13225;47.804;12.116;2022-07-10T12:34:01;2.25;;;1.98;;
25279;SDS011;13225;47.804;12.116;2022-07-10T12:36:45;1.90;;;1.80;;
25279;SDS011;13225;47.804;12.116;2022-07-10T12:39:14;3.97;;;2.00;;
25279;SDS011;13225;47.804;12.116;2022-07-10T12:41:53;3.10;;;1.83;;
25279;SDS011;13225;47.804;12.116;2022-07-10T12:47:04;2.03;;;1.80;;
25279;SDS011;13225;47.804;12.116;2022-07-10T12:52:24;1.73;;;1.48;;
25279;SDS011;13225;47.804;12.116;2022-07-10T12:55:34;2.65;;;1.77;;
25279;SDS011;13225;47.804;12.116;2022-07-10T12:57:53;2.55;;;1.70;;
25279;SDS011;13225;47.804;12.116;2022-07-10T13:00:27;2.35;;;1.70;;
25279;SDS011;13225;47.804;12.116;2022-07-10T13:05:38;2.33;;;2.13;;
25279;SDS011;13225;47.804;12.116;2022-07-10T13:08:10;2.53;;;1.80;;
25279;SDS011;13225;47.804;12.116;2022-07-10T13:10:45;2.35;;;2.15;;
25279;SDS011;13225;47.804;12.116;2022-07-10T13:13:15;3.03;;;1.80;;
25279;SDS011;13225;47.804;12.116;2022-07-10T13:15:41;2.58;;;1.75;;
25279;SDS011;13225;47.804;12.116;2022-07-10T13:18:27;3.08;;;1.70;;
25279;SDS011;13225;47.804;12.116;2022-07-10T13:20:54;2.03;;;1.70;;
25279;SDS011;13225;47.804;12.116;2022-07-10T13:23:25;3.17;;;2.00;;
25279;SDS011;13225;47.804;12.116;2022-07-10T13:25:54;2.00;;;1.80;;
25279;SDS011;13225;47.804;12.116;2022-07-10T13:28:21;2.03;;;1.70;;
25279;SDS011;13225;47.804;12.116;2022-07-10T13:30:47;3.50;;;1.80;;
25279;SDS011;13225;47.804;12.116;2022-07-10T13:33:13;2.88;;;1.63;;
25279;SDS011;13225;47.804;12.116;2022-07-10T13:35:38;2.28;;;1.90;;
25279;SDS011;13225;47.804;12.116;2022-07-10T13:38:04;3.42;;;1.60;;
25279;SDS011;13225;47.804;12.116;2022-07-10T13:40:31;4.00;;;1.88;;
25279;SDS011;13225;47.804;12.116;2022-07-10T13:42:59;2.85;;;1.70;;
25279;SDS011;13225;47.804;12.116;2022-07-10T13:45:25;3.10;;;2.10;;
25279;SDS011;13225;47.804;12.116;2022-07-10T13:47:57;2.05;;;1.55;;
25279;SDS011;13225;47.804;12.116;2022-07-10T13:50:23;4.45;;;1.80;;
25279;SDS011;13225;47.804;12.116;2022-07-10T13:52:49;1.92;;;1.67;;
25279;SDS011;13225;47.804;12.116;2022-07-10T13:55:15;2.88;;;1.88;;
25279;SDS011;13225;47.804;12.116;2022-07-10T13:57:41;2.63;;;1.77;;
25279;SDS011;13225;47.804;12.116;2022-07-10T14:00:07;2.55;;;1.80;;
25279;SDS011;13225;47.804;12.116;2022-07-10T14:02:33;1.95;;;1.60;;
25279;SDS011;13225;47.804;12.116;2022-07-10T14:04:59;3.83;;;1.55;;
25279;SDS011;13225;47.804;12.116;2022-07-10T14:07:25;3.28;;;1.63;;
25279;SDS011;13225;47.804;12.116;2022-07-10T14:09:51;3.58;;;1.70;;
25279;SDS011;13225;47.804;12.116;2022-07-10T14:12:16;1.88;;;1.60;;
25279;SDS011;13225;47.804;12.116;2022-07-10T14:14:42;2.20;;;1.42;;
25279;SDS011;13225;47.804;12.116;2022-07-10T14:17:08;1.83;;;1.73;;
25279;SDS011;13225;47.804;12.116;2022-07-10T14:19:33;3.38;;;1.75;;
25279;SDS011;13225;47.804;12.116;2022-07-10T14:21:59;1.63;;;1.52;;
25279;SDS011;13225;47.804;12.116;2022-07-10T14:24:25;4.00;;;1.85;;
25279;SDS011;13225;47.804;12.116;2022-07-10T14:26:51;2.95;;;1.88;;
25279;SDS011;13225;47.804;12.116;2022-07-10T14:29:18;5.18;;;1.83;;
25279;SDS011;13225;47.804;12.116;2022-07-10T14:31:44;3.65;;;1.70;;
25279;SDS011;13225;47.804;12.116;2022-07-10T14:34:13;1.80;;;1.70;;
25279;SDS011;13225;47.804;12.116;2022-07-10T14:36:38;3.17;;;1.60;;
25279;SDS011;13225;47.804;12.116;2022-07-10T14:39:04;1.92;;;1.52;;
25279;SDS011;13225;47.804;12.116;2022-07-10T14:41:29;2.97;;;1.50;;
25279;SDS011;13225;47.804;12.116;2022-07-10T14:43:55;2.30;;;1.80;;
25279;SDS011;13225;47.804;12.116;2022-07-10T14:46:21;2.95;;;1.23;;
25279;SDS011;13225;47.804;12.116;2022-07-10T14:48:46;1.40;;;1.30;;
25279;SDS011;13225;47.804;12.116;2022-07-10T14:51:12;2.10;;;1.45;;
25279;SDS011;13225;47.804;12.116;2022-07-10T14:53:38;2.92;;;1.80;;
25279;SDS011;13225;47.804;12.116;2022-07-10T14:56:06;2.65;;;1.50;;
25279;SDS011;13225;47.804;12.116;2022-07-10T14:58:32;2.45;;;1.20;;
25279;SDS011;13225;47.804;12.116;2022-07-10T15:00:58;1.73;;;1.30;;
25279;SDS011;13225;47.804;12.116;2022-07-10T15:03:25;1.83;;;1.60;;
25279;SDS011;13225;47.804;12.116;2022-07-10T15:05:51;4.65;;;1.30;;
25279;SDS011;13225;47.804;12.116;2022-07-10T15:08:21;2.33;;;1.50;;
25279;SDS011;13225;47.804;12.116;2022-07-10T15:10:47;3.17;;;1.20;;
25279;SDS011;13225;47.804;12.116;2022-07-10T15:13:13;1.85;;;1.33;;
25279;SDS011;13225;47.804;12.116;2022-07-10T15:15:39;3.67;;;1.20;;
25279;SDS011;13225;47.804;12.116;2022-07-10T15:18:05;2.00;;;1.65;;
25279;SDS011;13225;47.804;12.116;2022-07-10T15:20:32;3.38;;;1.50;;